sensor_id;sensor_type;location;lat;lon;timestamp;P1;durP1;ratioP1;P2;durP2;ratioP2
74328;SDS011;62745;51.060;13.786;2022-08-19T00:01:34;13.68;;;9.27;;
74328;SDS011;62745;51.060;13.786;2022-08-19T00:04:02;16.75;;;10.23;;
74328;SDS011;62745;51.060;13.786;2022-08-19T00:06:29;14.15;;;10.75;;
74328;SDS011;62745;51.060;13.786;2022-08-19T00:08:55;12.70;;;9.43;;
74328;SDS011;62745;51.060;13.786;2022-08-19T00:11:22;14.75;;;9.68;;
74328;SDS011;62745;51.060;13.786;2022-08-19T00:13:48;14.73;;;9.90;;
74328;SDS011;62745;51.060;13.786;2022-08-19T00:16:15;13.93;;;10.15;;
74328;SDS011;62745;51.060;13.786;2022-08-19T00:18:45;16.08;;;10.73;;
74328;SDS011;62745;51.060;13.786;2022-08-19T00:21:12;13.98;;;10.57;;
74328;SDS011;62745;51.060;13.786;2022-08-19T00:23:37;15.15;;;11.18;;
74328;SDS011;62745;51.060;13.786;2022-08-19T00:26:03;13.93;;;10.13;;
74328;SDS011;62745;51.060;13.786;2022-08-19T00:28:29;17.17;;;10.63;;
74328;SDS011;62745;51.060;13.786;2022-08-19T00:30:55;15.00;;;11.07;;
74328;SDS011;62745;51.060;13.786;2022-08-19T00:33:20;15.18;;;11.15;;
74328;SDS011;62745;51.060;13.786;2022-08-19T00:35:46;15.00;;;11.02;;
74328;SDS011;62745;51.060;13.786;2022-08-19T00:38:11;15.23;;;10.93;;
74328;SDS011;62745;51.060;13.786;2022-08-19T00:40:37;16.03;;;11.30;;
74328;SDS011;62745;51.060;13.786;2022-08-19T00:43:07;14.90;;;11.10;;
74328;SDS011;62745;51.060;13.786;2022-08-19T00:45:37;15.32;;;11.70;;
74328;SDS011;62745;51.060;13.786;2022-08-19T00:48:06;17.40;;;12.25;;
74328;SDS011;62745;51.060;13.786;2022-08-19T00:50:31;16.83;;;12.43;;
74328;SDS011;62745;51.060;13.786;2022-08-19T00:52:58;16.35;;;11.50;;
74328;SDS011;62745;51.060;13.786;2022-08-19T00:55:25;18.05;;;11.85;;
74328;SDS011;62745;51.060;13.786;2022-08-19T00:57:58;15.95;;;11.18;;
74328;SDS011;62745;51.060;13.786;2022-08-19T01:00:26;16.08;;;12.30;;
74328;SDS011;62745;51.060;13.786;2022-08-19T01:02:53;18.15;;;11.82;;
74328;SDS011;62745;51.060;13.786;2022-08-19T01:05:22;17.67;;;12.20;;
74328;SDS011;62745;51.060;13.786;2022-08-19T01:07:52;16.48;;;12.55;;
74328;SDS011;62745;51.060;13.786;2022-08-19T01:10:20;16.58;;;11.77;;
74328;SDS011;62745;51.060;13.786;2022-08-19T01:12:52;18.25;;;12.82;;
74328;SDS011;62745;51.060;13.786;2022-08-19T01:15:20;17.38;;;13.45;;
74328;SDS011;62745;51.060;13.786;2022-08-19T01:17:49;16.77;;;12.02;;
74328;SDS011;62745;51.060;13.786;2022-08-19T01:20:17;17.88;;;12.05;;
74328;SDS011;62745;51.060;13.786;2022-08-19T01:25:28;18.48;;;13.18;;
74328;SDS011;62745;51.060;13.786;2022-08-19T01:27:57;18.88;;;12.90;;
74328;SDS011;62745;51.060;13.786;2022-08-19T01:30:25;19.20;;;13.75;;
74328;SDS011;62745;51.060;13.786;2022-08-19T01:32:57;18.17;;;13.07;;
74328;SDS011;62745;51.060;13.786;2022-08-19T01:35:28;17.45;;;13.75;;
74328;SDS011;62745;51.060;13.786;2022-08-19T01:37:56;19.83;;;13.68;;
74328;SDS011;62745;51.060;13.786;2022-08-19T01:40:28;17.95;;;13.02;;
74328;SDS011;62745;51.060;13.786;2022-08-19T01:42:56;20.08;;;14.07;;
74328;SDS011;62745;51.060;13.786;2022-08-19T01:45:23;18.92;;;13.60;;
74328;SDS011;62745;51.060;13.786;2022-08-19T01:47:50;17.27;;;13.07;;
74328;SDS011;62745;51.060;13.786;2022-08-19T01:50:15;17.90;;;13.52;;
74328;SDS011;62745;51.060;13.786;2022-08-19T01:52:42;21.40;;;14.40;;
74328;SDS011;62745;51.060;13.786;2022-08-19T01:55:09;17.40;;;12.55;;
74328;SDS011;62745;51.060;13.786;2022-08-19T01:57:37;19.05;;;13.07;;
74328;SDS011;62745;51.060;13.786;2022-08-19T02:00:07;19.38;;;13.63;;
74328;SDS011;62745;51.060;13.786;2022-08-19T02:02:35;20.15;;;14.48;;
74328;SDS011;62745;51.060;13.786;2022-08-19T02:05:00;22.58;;;14.98;;
74328;SDS011;62745;51.060;13.786;2022-08-19T02:07:25;21.37;;;14.63;;
74328;SDS011;62745;51.060;13.786;2022-08-19T02:09:53;20.48;;;14.38;;
74328;SDS011;62745;51.060;13.786;2022-08-19T02:12:18;19.53;;;13.83;;
74328;SDS011;62745;51.060;13.786;2022-08-19T02:14:43;17.97;;;14.10;;
74328;SDS011;62745;51.060;13.786;2022-08-19T02:17:08;18.23;;;12.73;;
74328;SDS011;62745;51.060;13.786;2022-08-19T02:19:34;18.63;;;13.47;;
74328;SDS011;62745;51.060;13.786;2022-08-19T02:21:59;18.30;;;13.20;;
74328;SDS011;62745;51.060;13.786;2022-08-19T02:24:26;17.52;;;12.98;;
74328;SDS011;62745;51.060;13.786;2022-08-19T02:26:52;17.88;;;12.73;;
74328;SDS011;62745;51.060;13.786;2022-08-19T02:29:17;18.23;;;13.52;;
74328;SDS011;62745;51.060;13.786;2022-08-19T02:31:43;18.42;;;12.68;;
74328;SDS011;62745;51.060;13.786;2022-08-19T02:34:08;17.80;;;12.77;;
74328;SDS011;62745;51.060;13.786;2022-08-19T02:36:33;19.48;;;12.82;;
74328;SDS011;62745;51.060;13.786;2022-08-19T02:38:59;19.80;;;13.88;;
74328;SDS011;62745;51.060;13.786;2022-08-19T02:41:25;18.03;;;13.57;;
74328;SDS011;62745;51.060;13.786;2022-08-19T02:43:56;19.38;;;13.55;;
74328;SDS011;62745;51.060;13.786;2022-08-19T02:46:26;18.30;;;13.05;;
74328;SDS011;62745;51.060;13.786;2022-08-19T02:48:54;17.40;;;13.02;;
74328;SDS011;62745;51.060;13.786;2022-08-19T02:51:22;17.20;;;13.52;;
74328;SDS011;62745;51.060;13.786;2022-08-19T02:54:07;17.90;;;13.95;;
74328;SDS011;62745;51.060;13.786;2022-08-19T02:56:35;16.10;;;12.85;;
74328;SDS011;62745;51.060;13.786;2022-08-19T02:59:02;16.60;;;12.75;;
74328;SDS011;62745;51.060;13.786;2022-08-19T03:01:29;16.83;;;13.02;;
74328;SDS011;62745;51.060;13.786;2022-08-19T03:03:57;17.75;;;13.63;;
74328;SDS011;62745;51.060;13.786;2022-08-19T03:06:24;18.15;;;12.98;;
74328;SDS011;62745;51.060;13.786;2022-08-19T03:08:51;18.02;;;13.10;;
74328;SDS011;62745;51.060;13.786;2022-08-19T03:11:18;17.55;;;13.05;;
74328;SDS011;62745;51.060;13.786;2022-08-19T03:13:46;17.45;;;12.80;;
74328;SDS011;62745;51.060;13.786;2022-08-19T03:16:13;16.75;;;13.00;;
74328;SDS011;62745;51.060;13.786;2022-08-19T03:18:39;17.52;;;12.95;;
74328;SDS011;62745;51.060;13.786;2022-08-19T03:21:05;19.20;;;14.10;;
74328;SDS011;62745;51.060;13.786;2022-08-19T03:23:31;20.42;;;14.45;;
74328;SDS011;62745;51.060;13.786;2022-08-19T03:25:56;18.70;;;13.45;;
74328;SDS011;62745;51.060;13.786;2022-08-19T03:28:22;19.27;;;14.63;;
74328;SDS011;62745;51.060;13.786;2022-08-19T03:30:55;19.73;;;14.73;;
74328;SDS011;62745;51.060;13.786;2022-08-19T03:33:32;22.33;;;14.88;;
74328;SDS011;62745;51.060;13.786;2022-08-19T03:35:59;17.80;;;13.88;;
74328;SDS011;62745;51.060;13.786;2022-08-19T03:38:38;18.63;;;14.25;;
74328;SDS011;62745;51.060;13.786;2022-08-19T03:41:06;17.27;;;13.35;;
74328;SDS011;62745;51.060;13.786;2022-08-19T03:43:34;18.10;;;14.20;;
74328;SDS011;62745;51.060;13.786;2022-08-19T03:46:02;19.10;;;14.07;;
74328;SDS011;62745;51.060;13.786;2022-08-19T03:48:30;19.13;;;13.88;;
74328;SDS011;62745;51.060;13.786;2022-08-19T03:50:56;19.58;;;15.10;;
74328;SDS011;62745;51.060;13.786;2022-08-19T03:53:23;20.38;;;14.32;;
74328;SDS011;62745;51.060;13.786;2022-08-19T03:55:48;18.30;;;13.95;;
74328;SDS011;62745;51.060;13.786;2022-08-19T03:58:13;20.53;;;13.93;;
74328;SDS011;62745;51.060;13.786;2022-08-19T04:00:41;21.70;;;15.80;;
74328;SDS011;62745;51.060;13.786;2022-08-19T04:03:07;21.80;;;15.25;;
74328;SDS011;62745;51.060;13.786;2022-08-19T04:05:32;20.43;;;14.60;;
74328;SDS011;62745;51.060;13.786;2022-08-19T04:07:57;22.30;;;16.37;;
74328;SDS011;62745;51.060;13.786;2022-08-19T04:10:23;18.33;;;13.73;;
74328;SDS011;62745;51.060;13.786;2022-08-19T04:12:49;21.27;;;14.85;;
74328;SDS011;62745;51.060;13.786;2022-08-19T04:15:14;21.57;;;15.13;;
74328;SDS011;62745;51.060;13.786;2022-08-19T04:17:40;20.85;;;13.88;;
74328;SDS011;62745;51.060;13.786;2022-08-19T04:20:05;21.00;;;14.47;;
74328;SDS011;62745;51.060;13.786;2022-08-19T04:22:31;17.98;;;14.02;;
74328;SDS011;62745;51.060;13.786;2022-08-19T04:24:56;20.57;;;14.70;;
74328;SDS011;62745;51.060;13.786;2022-08-19T04:27:21;17.90;;;13.13;;
74328;SDS011;62745;51.060;13.786;2022-08-19T04:29:46;21.20;;;14.67;;
74328;SDS011;62745;51.060;13.786;2022-08-19T04:32:12;19.85;;;14.93;;
74328;SDS011;62745;51.060;13.786;2022-08-19T04:34:40;20.55;;;14.52;;
74328;SDS011;62745;51.060;13.786;2022-08-19T04:37:05;20.25;;;14.65;;
74328;SDS011;62745;51.060;13.786;2022-08-19T04:39:36;18.48;;;13.77;;
74328;SDS011;62745;51.060;13.786;2022-08-19T04:42:40;21.60;;;14.38;;
74328;SDS011;62745;51.060;13.786;2022-08-19T04:45:06;19.08;;;14.20;;
74328;SDS011;62745;51.060;13.786;2022-08-19T04:47:35;20.48;;;14.85;;
74328;SDS011;62745;51.060;13.786;2022-08-19T04:50:01;22.63;;;16.00;;
74328;SDS011;62745;51.060;13.786;2022-08-19T04:52:27;19.88;;;15.27;;
74328;SDS011;62745;51.060;13.786;2022-08-19T04:54:53;21.45;;;15.40;;
74328;SDS011;62745;51.060;13.786;2022-08-19T04:57:20;19.73;;;14.55;;
74328;SDS011;62745;51.060;13.786;2022-08-19T04:59:45;19.67;;;14.40;;
74328;SDS011;62745;51.060;13.786;2022-08-19T05:02:11;20.63;;;14.70;;
74328;SDS011;62745;51.060;13.786;2022-08-19T05:04:36;21.50;;;15.13;;
74328;SDS011;62745;51.060;13.786;2022-08-19T05:07:03;20.40;;;15.15;;
74328;SDS011;62745;51.060;13.786;2022-08-19T05:09:29;20.48;;;15.23;;
74328;SDS011;62745;51.060;13.786;2022-08-19T05:11:55;20.02;;;14.60;;
74328;SDS011;62745;51.060;13.786;2022-08-19T05:14:20;20.33;;;15.13;;
74328;SDS011;62745;51.060;13.786;2022-08-19T05:16:46;20.85;;;14.95;;
74328;SDS011;62745;51.060;13.786;2022-08-19T05:19:12;21.10;;;14.68;;
74328;SDS011;62745;51.060;13.786;2022-08-19T05:21:56;20.10;;;15.00;;
74328;SDS011;62745;51.060;13.786;2022-08-19T05:24:40;21.40;;;14.40;;
74328;SDS011;62745;51.060;13.786;2022-08-19T05:27:06;20.25;;;14.52;;
74328;SDS011;62745;51.060;13.786;2022-08-19T05:29:31;17.98;;;13.73;;
74328;SDS011;62745;51.060;13.786;2022-08-19T05:31:59;20.42;;;14.77;;
74328;SDS011;62745;51.060;13.786;2022-08-19T05:34:26;19.88;;;14.55;;
74328;SDS011;62745;51.060;13.786;2022-08-19T05:36:53;19.85;;;14.95;;
74328;SDS011;62745;51.060;13.786;2022-08-19T05:39:22;21.50;;;14.98;;
74328;SDS011;62745;51.060;13.786;2022-08-19T05:41:50;19.73;;;14.68;;
74328;SDS011;62745;51.060;13.786;2022-08-19T05:44:22;19.15;;;14.57;;
74328;SDS011;62745;51.060;13.786;2022-08-19T05:46:52;21.83;;;15.60;;
74328;SDS011;62745;51.060;13.786;2022-08-19T05:49:18;24.13;;;15.93;;
74328;SDS011;62745;51.060;13.786;2022-08-19T05:51:46;19.50;;;14.90;;
74328;SDS011;62745;51.060;13.786;2022-08-19T05:54:11;22.27;;;15.25;;
74328;SDS011;62745;51.060;13.786;2022-08-19T05:56:38;21.63;;;15.35;;
74328;SDS011;62745;51.060;13.786;2022-08-19T05:59:04;20.77;;;15.02;;
74328;SDS011;62745;51.060;13.786;2022-08-19T06:01:33;22.20;;;15.00;;
74328;SDS011;62745;51.060;13.786;2022-08-19T06:03:59;24.13;;;16.38;;
74328;SDS011;62745;51.060;13.786;2022-08-19T06:06:25;21.20;;;15.57;;
74328;SDS011;62745;51.060;13.786;2022-08-19T06:08:50;18.97;;;14.67;;
74328;SDS011;62745;51.060;13.786;2022-08-19T06:14:03;18.85;;;13.63;;
74328;SDS011;62745;51.060;13.786;2022-08-19T06:16:35;18.27;;;14.00;;
74328;SDS011;62745;51.060;13.786;2022-08-19T06:19:04;19.13;;;12.43;;
74328;SDS011;62745;51.060;13.786;2022-08-19T06:21:32;16.55;;;11.57;;
74328;SDS011;62745;51.060;13.786;2022-08-19T06:23:58;15.63;;;11.32;;
74328;SDS011;62745;51.060;13.786;2022-08-19T06:26:24;16.75;;;11.30;;
74328;SDS011;62745;51.060;13.786;2022-08-19T06:28:49;15.32;;;10.27;;
74328;SDS011;62745;51.060;13.786;2022-08-19T06:31:16;15.88;;;11.05;;
74328;SDS011;62745;51.060;13.786;2022-08-19T06:33:43;14.63;;;10.57;;
74328;SDS011;62745;51.060;13.786;2022-08-19T06:38:58;14.40;;;9.55;;
74328;SDS011;62745;51.060;13.786;2022-08-19T06:41:33;12.73;;;9.45;;
74328;SDS011;62745;51.060;13.786;2022-08-19T06:44:00;14.10;;;9.77;;
74328;SDS011;62745;51.060;13.786;2022-08-19T06:46:25;14.07;;;9.77;;
74328;SDS011;62745;51.060;13.786;2022-08-19T06:48:51;13.98;;;10.20;;
74328;SDS011;62745;51.060;13.786;2022-08-19T06:51:18;14.27;;;10.00;;
74328;SDS011;62745;51.060;13.786;2022-08-19T06:53:45;14.77;;;10.75;;
74328;SDS011;62745;51.060;13.786;2022-08-19T06:56:12;15.48;;;10.75;;
74328;SDS011;62745;51.060;13.786;2022-08-19T06:58:46;16.45;;;11.70;;
74328;SDS011;62745;51.060;13.786;2022-08-19T07:01:11;16.42;;;12.15;;
74328;SDS011;62745;51.060;13.786;2022-08-19T07:03:38;19.27;;;12.38;;
74328;SDS011;62745;51.060;13.786;2022-08-19T07:06:04;19.23;;;13.13;;
74328;SDS011;62745;51.060;13.786;2022-08-19T07:08:32;19.50;;;13.40;;
74328;SDS011;62745;51.060;13.786;2022-08-19T07:10:57;19.95;;;12.60;;
74328;SDS011;62745;51.060;13.786;2022-08-19T07:13:22;20.58;;;14.48;;
74328;SDS011;62745;51.060;13.786;2022-08-19T07:15:48;18.83;;;11.83;;
74328;SDS011;62745;51.060;13.786;2022-08-19T07:18:15;19.30;;;12.65;;
74328;SDS011;62745;51.060;13.786;2022-08-19T07:20:41;17.98;;;13.00;;
74328;SDS011;62745;51.060;13.786;2022-08-19T07:23:08;16.52;;;11.90;;
74328;SDS011;62745;51.060;13.786;2022-08-19T07:25:35;19.40;;;13.75;;
74328;SDS011;62745;51.060;13.786;2022-08-19T07:28:01;20.10;;;13.25;;
74328;SDS011;62745;51.060;13.786;2022-08-19T07:30:27;21.60;;;13.40;;
74328;SDS011;62745;51.060;13.786;2022-08-19T07:32:52;20.75;;;13.73;;
74328;SDS011;62745;51.060;13.786;2022-08-19T07:35:18;23.52;;;14.38;;
74328;SDS011;62745;51.060;13.786;2022-08-19T07:37:45;24.08;;;14.23;;
74328;SDS011;62745;51.060;13.786;2022-08-19T07:40:11;21.95;;;14.70;;
74328;SDS011;62745;51.060;13.786;2022-08-19T07:42:36;22.67;;;15.57;;
74328;SDS011;62745;51.060;13.786;2022-08-19T07:45:02;22.75;;;15.68;;
74328;SDS011;62745;51.060;13.786;2022-08-19T07:47:29;24.05;;;17.50;;
74328;SDS011;62745;51.060;13.786;2022-08-19T07:49:55;25.97;;;17.63;;
74328;SDS011;62745;51.060;13.786;2022-08-19T07:52:21;26.50;;;17.20;;
74328;SDS011;62745;51.060;13.786;2022-08-19T07:54:47;26.17;;;16.55;;
74328;SDS011;62745;51.060;13.786;2022-08-19T07:57:12;26.73;;;17.65;;
74328;SDS011;62745;51.060;13.786;2022-08-19T07:59:37;23.93;;;15.90;;
74328;SDS011;62745;51.060;13.786;2022-08-19T08:02:03;25.30;;;16.98;;
74328;SDS011;62745;51.060;13.786;2022-08-19T08:04:30;26.35;;;17.15;;
74328;SDS011;62745;51.060;13.786;2022-08-19T08:07:19;28.70;;;17.90;;
74328;SDS011;62745;51.060;13.786;2022-08-19T08:10:04;25.92;;;17.67;;
74328;SDS011;62745;51.060;13.786;2022-08-19T08:12:36;29.27;;;18.25;;
74328;SDS011;62745;51.060;13.786;2022-08-19T08:15:09;27.55;;;18.25;;
74328;SDS011;62745;51.060;13.786;2022-08-19T08:17:41;26.15;;;17.55;;
74328;SDS011;62745;51.060;13.786;2022-08-19T08:20:08;26.88;;;18.67;;
74328;SDS011;62745;51.060;13.786;2022-08-19T08:22:34;29.08;;;18.85;;
74328;SDS011;62745;51.060;13.786;2022-08-19T08:25:21;31.20;;;20.08;;
74328;SDS011;62745;51.060;13.786;2022-08-19T08:27:48;28.50;;;18.45;;
74328;SDS011;62745;51.060;13.786;2022-08-19T08:30:21;28.30;;;18.75;;
74328;SDS011;62745;51.060;13.786;2022-08-19T08:32:48;31.00;;;20.23;;
74328;SDS011;62745;51.060;13.786;2022-08-19T08:35:16;25.65;;;18.08;;
74328;SDS011;62745;51.060;13.786;2022-08-19T08:37:43;24.70;;;17.00;;
74328;SDS011;62745;51.060;13.786;2022-08-19T08:40:11;23.20;;;16.15;;
74328;SDS011;62745;51.060;13.786;2022-08-19T08:42:43;24.02;;;16.88;;
74328;SDS011;62745;51.060;13.786;2022-08-19T08:45:19;20.00;;;14.60;;
74328;SDS011;62745;51.060;13.786;2022-08-19T08:47:47;22.90;;;14.80;;
74328;SDS011;62745;51.060;13.786;2022-08-19T08:52:53;21.35;;;14.20;;
74328;SDS011;62745;51.060;13.786;2022-08-19T08:55:23;20.67;;;13.50;;
74328;SDS011;62745;51.060;13.786;2022-08-19T08:57:53;18.40;;;13.55;;
74328;SDS011;62745;51.060;13.786;2022-08-19T09:00:35;18.40;;;13.05;;
74328;SDS011;62745;51.060;13.786;2022-08-19T09:03:03;17.90;;;12.70;;
74328;SDS011;62745;51.060;13.786;2022-08-19T09:08:27;17.02;;;12.15;;
74328;SDS011;62745;51.060;13.786;2022-08-19T09:10:55;16.48;;;12.55;;
74328;SDS011;62745;51.060;13.786;2022-08-19T09:16:12;15.85;;;11.90;;
74328;SDS011;62745;51.060;13.786;2022-08-19T09:18:44;20.65;;;11.65;;
74328;SDS011;62745;51.060;13.786;2022-08-19T09:21:18;15.93;;;11.48;;
74328;SDS011;62745;51.060;13.786;2022-08-19T09:23:45;15.68;;;11.95;;
74328;SDS011;62745;51.060;13.786;2022-08-19T09:26:11;15.93;;;11.65;;
74328;SDS011;62745;51.060;13.786;2022-08-19T09:28:39;16.73;;;12.25;;
74328;SDS011;62745;51.060;13.786;2022-08-19T09:31:09;17.58;;;12.05;;
74328;SDS011;62745;51.060;13.786;2022-08-19T09:33:38;17.85;;;12.10;;
74328;SDS011;62745;51.060;13.786;2022-08-19T09:36:04;16.27;;;11.15;;
74328;SDS011;62745;51.060;13.786;2022-08-19T09:38:35;16.35;;;12.02;;
74328;SDS011;62745;51.060;13.786;2022-08-19T09:41:02;16.70;;;12.27;;
74328;SDS011;62745;51.060;13.786;2022-08-19T09:45:57;15.98;;;11.65;;
74328;SDS011;62745;51.060;13.786;2022-08-19T09:48:22;16.75;;;12.07;;
74328;SDS011;62745;51.060;13.786;2022-08-19T09:50:48;19.03;;;12.03;;
74328;SDS011;62745;51.060;13.786;2022-08-19T09:53:13;16.43;;;12.43;;
74328;SDS011;62745;51.060;13.786;2022-08-19T09:55:42;15.80;;;11.57;;
74328;SDS011;62745;51.060;13.786;2022-08-19T09:58:07;16.40;;;11.95;;
74328;SDS011;62745;51.060;13.786;2022-08-19T10:00:33;18.00;;;11.77;;
74328;SDS011;62745;51.060;13.786;2022-08-19T10:02:58;16.07;;;11.70;;
74328;SDS011;62745;51.060;13.786;2022-08-19T10:05:24;15.70;;;10.88;;
74328;SDS011;62745;51.060;13.786;2022-08-19T10:08:08;15.23;;;11.88;;
74328;SDS011;62745;51.060;13.786;2022-08-19T10:10:37;15.85;;;11.27;;
74328;SDS011;62745;51.060;13.786;2022-08-19T10:13:02;15.20;;;11.23;;
74328;SDS011;62745;51.060;13.786;2022-08-19T10:15:28;15.82;;;10.48;;
74328;SDS011;62745;51.060;13.786;2022-08-19T10:17:53;15.33;;;10.37;;
74328;SDS011;62745;51.060;13.786;2022-08-19T10:20:18;13.30;;;9.30;;
74328;SDS011;62745;51.060;13.786;2022-08-19T10:22:43;12.33;;;8.83;;
74328;SDS011;62745;51.060;13.786;2022-08-19T10:25:09;12.07;;;8.55;;
74328;SDS011;62745;51.060;13.786;2022-08-19T10:27:34;11.05;;;8.98;;
74328;SDS011;62745;51.060;13.786;2022-08-19T10:29:59;12.07;;;9.30;;
74328;SDS011;62745;51.060;13.786;2022-08-19T10:32:24;12.80;;;7.83;;
74328;SDS011;62745;51.060;13.786;2022-08-19T10:34:50;9.57;;;7.20;;
74328;SDS011;62745;51.060;13.786;2022-08-19T10:37:17;9.95;;;7.45;;
74328;SDS011;62745;51.060;13.786;2022-08-19T10:39:44;11.80;;;7.55;;
74328;SDS011;62745;51.060;13.786;2022-08-19T10:42:12;9.27;;;6.82;;
74328;SDS011;62745;51.060;13.786;2022-08-19T10:44:38;10.50;;;7.00;;
74328;SDS011;62745;51.060;13.786;2022-08-19T10:47:04;9.40;;;6.75;;
74328;SDS011;62745;51.060;13.786;2022-08-19T10:49:30;12.13;;;7.38;;
74328;SDS011;62745;51.060;13.786;2022-08-19T10:51:55;9.50;;;6.65;;
74328;SDS011;62745;51.060;13.786;2022-08-19T10:54:39;9.18;;;6.43;;
74328;SDS011;62745;51.060;13.786;2022-08-19T10:57:23;8.88;;;6.45;;
74328;SDS011;62745;51.060;13.786;2022-08-19T10:59:54;9.07;;;6.93;;
74328;SDS011;62745;51.060;13.786;2022-08-19T11:02:20;9.63;;;7.00;;
74328;SDS011;62745;51.060;13.786;2022-08-19T11:04:45;9.57;;;7.47;;
74328;SDS011;62745;51.060;13.786;2022-08-19T11:07:10;9.00;;;6.63;;
74328;SDS011;62745;51.060;13.786;2022-08-19T11:09:38;8.60;;;6.88;;
74328;SDS011;62745;51.060;13.786;2022-08-19T11:12:05;9.43;;;6.25;;
74328;SDS011;62745;51.060;13.786;2022-08-19T11:14:32;9.38;;;6.20;;
74328;SDS011;62745;51.060;13.786;2022-08-19T11:16:58;8.02;;;6.22;;
74328;SDS011;62745;51.060;13.786;2022-08-19T11:19:24;7.43;;;5.93;;
74328;SDS011;62745;51.060;13.786;2022-08-19T11:21:50;8.07;;;6.15;;
74328;SDS011;62745;51.060;13.786;2022-08-19T11:24:18;8.48;;;6.05;;
74328;SDS011;62745;51.060;13.786;2022-08-19T11:26:45;9.80;;;7.32;;
74328;SDS011;62745;51.060;13.786;2022-08-19T11:29:13;10.93;;;7.45;;
74328;SDS011;62745;51.060;13.786;2022-08-19T11:31:40;8.93;;;7.13;;
74328;SDS011;62745;51.060;13.786;2022-08-19T11:34:07;10.57;;;7.57;;
74328;SDS011;62745;51.060;13.786;2022-08-19T11:36:36;11.60;;;8.68;;
74328;SDS011;62745;51.060;13.786;2022-08-19T11:39:04;10.45;;;7.90;;
74328;SDS011;62745;51.060;13.786;2022-08-19T11:41:30;10.85;;;7.90;;
74328;SDS011;62745;51.060;13.786;2022-08-19T11:43:56;13.43;;;8.70;;
74328;SDS011;62745;51.060;13.786;2022-08-19T11:46:22;11.75;;;7.95;;
74328;SDS011;62745;51.060;13.786;2022-08-19T11:48:49;11.45;;;7.80;;
74328;SDS011;62745;51.060;13.786;2022-08-19T11:51:16;10.82;;;7.85;;
74328;SDS011;62745;51.060;13.786;2022-08-19T11:53:47;10.20;;;7.18;;
74328;SDS011;62745;51.060;13.786;2022-08-19T11:56:13;11.50;;;8.07;;
74328;SDS011;62745;51.060;13.786;2022-08-19T11:58:38;11.38;;;8.45;;
74328;SDS011;62745;51.060;13.786;2022-08-19T12:01:05;12.15;;;8.98;;
74328;SDS011;62745;51.060;13.786;2022-08-19T12:03:31;11.80;;;9.15;;
74328;SDS011;62745;51.060;13.786;2022-08-19T12:05:57;12.55;;;9.40;;
74328;SDS011;62745;51.060;13.786;2022-08-19T12:08:22;13.97;;;9.87;;
74328;SDS011;62745;51.060;13.786;2022-08-19T12:10:48;12.80;;;9.32;;
74328;SDS011;62745;51.060;13.786;2022-08-19T12:13:13;15.40;;;9.85;;
74328;SDS011;62745;51.060;13.786;2022-08-19T12:15:43;14.13;;;10.05;;
74328;SDS011;62745;51.060;13.786;2022-08-19T12:18:10;15.02;;;11.02;;
74328;SDS011;62745;51.060;13.786;2022-08-19T12:20:39;16.38;;;11.57;;
74328;SDS011;62745;51.060;13.786;2022-08-19T12:23:06;15.75;;;11.52;;
74328;SDS011;62745;51.060;13.786;2022-08-19T12:25:34;20.20;;;13.35;;
74328;SDS011;62745;51.060;13.786;2022-08-19T12:28:00;16.40;;;12.00;;
74328;SDS011;62745;51.060;13.786;2022-08-19T12:30:26;18.33;;;12.48;;
74328;SDS011;62745;51.060;13.786;2022-08-19T12:32:51;19.95;;;13.48;;
74328;SDS011;62745;51.060;13.786;2022-08-19T12:35:16;16.55;;;12.27;;
74328;SDS011;62745;51.060;13.786;2022-08-19T12:37:44;21.50;;;13.75;;
74328;SDS011;62745;51.060;13.786;2022-08-19T12:40:10;19.52;;;12.73;;
74328;SDS011;62745;51.060;13.786;2022-08-19T12:42:37;19.50;;;14.38;;
74328;SDS011;62745;51.060;13.786;2022-08-19T12:45:06;19.25;;;13.68;;
74328;SDS011;62745;51.060;13.786;2022-08-19T12:47:32;19.25;;;13.63;;
74328;SDS011;62745;51.060;13.786;2022-08-19T12:49:57;18.63;;;13.73;;
74328;SDS011;62745;51.060;13.786;2022-08-19T12:52:23;19.73;;;13.30;;
74328;SDS011;62745;51.060;13.786;2022-08-19T12:54:52;20.60;;;14.68;;
74328;SDS011;62745;51.060;13.786;2022-08-19T12:57:19;21.05;;;14.10;;
74328;SDS011;62745;51.060;13.786;2022-08-19T12:59:44;21.15;;;13.65;;
74328;SDS011;62745;51.060;13.786;2022-08-19T13:02:09;20.93;;;14.80;;
74328;SDS011;62745;51.060;13.786;2022-08-19T13:04:35;18.75;;;13.30;;
74328;SDS011;62745;51.060;13.786;2022-08-19T13:07:03;18.25;;;12.25;;
74328;SDS011;62745;51.060;13.786;2022-08-19T13:09:28;18.63;;;13.10;;
74328;SDS011;62745;51.060;13.786;2022-08-19T13:11:53;15.90;;;12.57;;
74328;SDS011;62745;51.060;13.786;2022-08-19T13:14:19;16.95;;;12.25;;
74328;SDS011;62745;51.060;13.786;2022-08-19T13:16:44;19.30;;;12.83;;
74328;SDS011;62745;51.060;13.786;2022-08-19T13:19:09;17.90;;;12.73;;
74328;SDS011;62745;51.060;13.786;2022-08-19T13:21:36;19.13;;;12.68;;
74328;SDS011;62745;51.060;13.786;2022-08-19T13:24:02;18.23;;;12.43;;
74328;SDS011;62745;51.060;13.786;2022-08-19T13:26:27;18.35;;;12.63;;
74328;SDS011;62745;51.060;13.786;2022-08-19T13:28:53;20.43;;;13.50;;
74328;SDS011;62745;51.060;13.786;2022-08-19T13:31:39;19.48;;;14.00;;
74328;SDS011;62745;51.060;13.786;2022-08-19T13:34:29;19.65;;;13.68;;
74328;SDS011;62745;51.060;13.786;2022-08-19T13:37:00;21.45;;;15.13;;
74328;SDS011;62745;51.060;13.786;2022-08-19T13:39:30;22.88;;;15.63;;
74328;SDS011;62745;51.060;13.786;2022-08-19T13:41:57;26.00;;;15.43;;
74328;SDS011;62745;51.060;13.786;2022-08-19T13:44:25;21.85;;;14.85;;
74328;SDS011;62745;51.060;13.786;2022-08-19T13:46:51;24.20;;;16.27;;
74328;SDS011;62745;51.060;13.786;2022-08-19T13:49:17;21.17;;;14.95;;
74328;SDS011;62745;51.060;13.786;2022-08-19T13:51:43;19.42;;;13.63;;
74328;SDS011;62745;51.060;13.786;2022-08-19T13:54:09;22.73;;;15.40;;
74328;SDS011;62745;51.060;13.786;2022-08-19T13:56:35;24.48;;;15.57;;
74328;SDS011;62745;51.060;13.786;2022-08-19T13:59:04;24.25;;;15.75;;
74328;SDS011;62745;51.060;13.786;2022-08-19T14:01:30;21.60;;;15.13;;
74328;SDS011;62745;51.060;13.786;2022-08-19T14:03:55;21.90;;;14.98;;
74328;SDS011;62745;51.060;13.786;2022-08-19T14:06:20;21.85;;;15.23;;
74328;SDS011;62745;51.060;13.786;2022-08-19T14:08:47;22.52;;;16.33;;
74328;SDS011;62745;51.060;13.786;2022-08-19T14:11:12;21.63;;;16.13;;
74328;SDS011;62745;51.060;13.786;2022-08-19T14:13:38;24.25;;;17.23;;
74328;SDS011;62745;51.060;13.786;2022-08-19T14:16:07;25.15;;;17.00;;
74328;SDS011;62745;51.060;13.786;2022-08-19T14:18:34;24.25;;;17.23;;
74328;SDS011;62745;51.060;13.786;2022-08-19T14:20:59;23.75;;;16.77;;
74328;SDS011;62745;51.060;13.786;2022-08-19T14:23:25;23.35;;;15.90;;
74328;SDS011;62745;51.060;13.786;2022-08-19T14:25:50;22.00;;;15.80;;
74328;SDS011;62745;51.060;13.786;2022-08-19T14:28:16;23.58;;;16.65;;
74328;SDS011;62745;51.060;13.786;2022-08-19T14:30:41;28.00;;;18.92;;
74328;SDS011;62745;51.060;13.786;2022-08-19T14:33:09;28.05;;;18.00;;